Time;durP1;ratioP1;P1;durP2;ratioP2;P2;SDS_P1;SDS_P2;PMS_P1;PMS_P2;Temp;Humidity;BMP_temperature;BMP_pressure;BME280_temperature;BME280_humidity;BME280_pressure;Samples;Min_cycle;Max_cycle;Signal;HPM_P1;HPM_P2
2021/09/28 09:19:48;;;;;;;2.67;1.60;;;;;;;24.30;40.40;100425.98;1669455;82;21646;-41
2021/09/28 09:22:15;;;;;;;7.55;2.05;;;;;;;24.34;40.42;100429.28;1618822;83;21073;-40
2021/09/28 09:24:49;;;;;;;2.75;1.92;;;;;;;24.34;40.48;100426.59;1688748;83;21036;-40
2021/09/28 09:27:20;;;;;;;2.83;1.90;;;;;;;24.35;40.51;100429.66;1675006;83;21070;-41
2021/09/28 09:30:15;;;;;;;2.87;1.85;;;;;;;24.38;40.54;100434.80;1670063;82;21059;-41
2021/09/28 09:32:57;;;;;;;2.33;2.10;;;;;;;24.39;40.56;100432.97;1672710;83;21186;-41
2021/09/28 09:35:27;;;;;;;2.70;1.72;;;;;;;24.41;40.62;100433.23;1679343;83;21138;-41
2021/09/28 09:38:11;;;;;;;3.85;2.33;;;;;;;24.45;40.60;100436.53;1660317;83;21634;-41
2021/09/28 09:40:45;;;;;;;2.83;2.22;;;;;;;24.46;40.61;100431.03;1662475;83;21055;-40
2021/09/28 09:43:13;;;;;;;2.50;1.80;;;;;;;24.48;40.61;100434.45;1689346;82;21112;-40
2021/09/28 09:45:39;;;;;;;3.27;2.10;;;;;;;24.52;40.58;100430.18;1679632;82;21550;-40
2021/09/28 09:48:24;;;;;;;2.62;2.12;;;;;;;24.53;40.56;100434.09;1717364;82;21138;-40
2021/09/28 09:50:56;;;;;;;2.65;2.25;;;;;;;24.56;40.55;100428.98;1752512;80;21096;-40
2021/09/28 09:53:23;;;;;;;4.25;1.85;;;;;;;24.58;40.53;100429.24;1757220;79;21080;-39
2021/09/28 09:55:49;;;;;;;3.08;1.80;;;;;;;24.61;40.52;100429.47;1728360;80;20993;-40
2021/09/28 09:58:16;;;;;;;3.77;1.85;;;;;;;24.62;40.51;100423.97;1733820;79;21012;-40
2021/09/28 10:00:42;;;;;;;1.95;1.80;;;;;;;24.63;40.51;100427.04;1733013;80;23375;-40
2021/09/28 10:03:10;;;;;;;2.77;2.27;;;;;;;24.64;40.54;100431.42;1679829;82;21064;-40
2021/09/28 10:05:37;;;;;;;2.47;2.08;;;;;;;24.65;40.59;100429.61;1732196;80;21023;-40
2021/09/28 10:08:08;;;;;;;3.22;2.00;;;;;;;24.65;40.64;100430.96;1751946;79;22025;-40
2021/09/28 10:10:36;;;;;;;2.60;2.00;;;;;;;24.65;40.67;100438.53;1752719;80;21061;-40
2021/09/28 10:13:05;;;;;;;2.83;2.15;;;;;;;24.66;40.74;100436.69;1743488;80;21106;-40
2021/09/28 10:15:34;;;;;;;3.70;2.35;;;;;;;24.66;40.77;100443.42;1728229;82;20952;-40
2021/09/28 10:18:00;;;;;;;2.33;2.05;;;;;;;24.66;40.82;100444.76;1715082;82;21013;-42
2021/09/28 10:20:32;;;;;;;2.22;1.82;;;;;;;24.65;40.85;100443.06;1702233;82;21491;-40
2021/09/28 10:23:15;;;;;;;2.95;1.98;;;;;;;24.66;41.00;100436.69;1703440;82;20994;-40
2021/09/28 10:25:45;;;;;;;;;;;;;;;24.65;41.03;100441.72;1736734;81;21033;-41
2021/09/28 10:28:17;;;;;;;6.42;2.30;;;;;;;24.64;41.16;100444.03;1747891;80;20200;-42
2021/09/28 10:30:46;;;;;;;2.72;1.90;;;;;;;24.62;41.17;100451.38;1758694;80;21040;-41
2021/09/28 10:33:29;;;;;;;4.87;1.90;;;;;;;24.60;41.13;100450.15;1718454;80;21037;-40
2021/09/28 10:36:11;;;;;;;2.62;1.87;;;;;;;24.60;41.08;100450.65;1722685;82;21086;-40
2021/09/28 10:38:58;;;;;;;3.33;1.90;;;;;;;24.57;41.00;100453.57;1720140;80;21379;-40
2021/09/28 10:41:43;;;;;;;3.33;1.90;;;;;;;24.57;41.02;100456.27;1733375;82;20984;-39
2021/09/28 10:44:40;;;;;;;3.10;1.90;;;;;;;24.56;41.01;100451.84;1745835;80;21037;-39
2021/09/28 10:47:02;;;;;;;3.70;1.77;;;;;;;24.53;41.01;100455.62;1752878;80;21036;-40
2021/09/28 10:49:30;;;;;;;3.65;1.98;;;;;;;24.52;41.01;100452.55;1714467;82;21474;-39
2021/09/28 10:52:26;;;;;;;3.27;1.60;;;;;;;24.51;41.05;100451.32;1749373;80;21658;-40
2021/09/28 10:55:13;;;;;;;2.35;1.60;;;;;;;24.51;41.05;100449.98;1736395;79;21011;-39
2021/09/28 10:58:02;;;;;;;4.12;2.10;;;;;;;24.50;41.04;100450.97;1741743;80;21278;-45
2021/09/28 11:00:32;;;;;;;2.17;1.70;;;;;;;24.48;41.08;100455.97;1748591;80;21091;-40
2021/09/28 11:02:59;;;;;;;2.55;1.60;;;;;;;24.48;41.05;100456.47;1718046;80;21691;-40
2021/09/28 11:05:37;;;;;;;3.20;1.95;;;;;;;24.47;41.12;100452.90;1737647;80;21134;-39
2021/09/28 11:08:07;;;;;;;4.15;1.50;;;;;;;24.46;41.20;100453.89;1754379;80;21087;-40
2021/09/28 11:10:38;;;;;;;2.58;1.42;;;;;;;24.46;41.12;100454.36;1689285;82;21162;-40
2021/09/28 11:13:08;;;;;;;9.15;1.90;;;;;;;24.45;41.14;100458.89;1704504;81;21145;-41
2021/09/28 11:15:34;;;;;;;2.60;1.80;;;;;;;24.45;41.20;100465.62;1736029;80;21064;-39
2021/09/28 11:18:12;;;;;;;2.55;1.65;;;;;;;24.46;41.14;100461.97;1734201;80;21256;-40
2021/09/28 11:20:41;;;;;;;3.62;1.60;;;;;;;24.47;41.13;100460.13;1709202;82;21465;-43
2021/09/28 11:23:11;;;;;;;4.42;1.87;;;;;;;24.46;41.11;100460.63;1727758;80;21051;-38
2021/09/28 11:25:42;;;;;;;3.30;1.60;;;;;;;24.46;41.09;100457.05;1711821;81;21099;-39
2021/09/28 11:28:14;;;;;;;3.25;1.82;;;;;;;24.47;41.11;100458.28;1721095;80;21558;-40
2021/09/28 11:30:53;;;;;;;4.05;1.82;;;;;;;24.47;41.04;100462.31;1730453;81;21143;-40
2021/09/28 11:33:22;;;;;;;5.50;1.80;;;;;;;24.48;41.07;100460.01;1701534;82;21087;-39
2021/09/28 11:36:09;;;;;;;4.00;1.75;;;;;;;24.50;40.99;100464.42;1738434;80;21043;-39
2021/09/28 11:38:40;;;;;;;3.10;1.90;;;;;;;24.50;40.98;100457.20;1743171;80;22196;-39
2021/09/28 11:41:11;;;;;;;2.58;1.70;;;;;;;24.50;40.98;100463.08;1728714;81;20953;-40
2021/09/28 11:43:38;;;;;;;6.75;1.80;;;;;;;24.50;40.96;100460.39;1720883;82;21111;-40
2021/09/28 11:46:09;;;;;;;2.70;1.50;;;;;;;24.52;40.95;100467.84;1729762;80;21092;-40
2021/09/28 11:48:42;;;;;;;2.95;1.72;;;;;;;24.51;40.93;100462.96;1704960;82;21091;-40
2021/09/28 11:51:24;;;;;;;3.92;1.82;;;;;;;24.52;40.94;100470.53;1719623;81;21085;-39
2021/09/28 11:53:47;;;;;;;3.72;1.82;;;;;;;24.52;40.88;100467.84;1721051;81;21443;-39
2021/09/28 11:56:16;;;;;;;7.45;1.90;;;;;;;24.53;40.90;100468.19;1761988;79;21075;-39
2021/09/28 11:58:42;;;;;;;4.35;1.57;;;;;;;24.52;40.88;100466.00;1712001;80;20962;-40
2021/09/28 12:01:10;;;;;;;2.52;1.80;;;;;;;24.52;40.87;100472.73;1694226;82;21498;-40
2021/09/28 12:04:00;;;;;;;2.33;1.80;;;;;;;24.51;40.90;100471.50;1737869;80;21019;-39
2021/09/28 12:06:27;;;;;;;3.62;1.65;;;;;;;24.51;40.99;100470.16;1727494;80;21046;-38
2021/09/28 12:08:52;;;;;;;2.70;2.00;;;;;;;24.50;40.98;100469.30;1736583;80;21076;-40
2021/09/28 12:11:18;;;;;;;6.95;2.35;;;;;;;24.51;40.93;100478.22;1736775;80;21043;-40
2021/09/28 12:13:48;;;;;;;3.67;1.75;;;;;;;24.51;40.97;100475.53;1735680;81;21500;-40
2021/09/28 12:16:17;;;;;;;2.47;1.72;;;;;;;24.50;41.02;100472.49;1720779;81;21185;-41
2021/09/28 12:18:45;;;;;;;4.58;1.60;;;;;;;24.51;41.04;100474.19;1736370;80;21553;-40
2021/09/28 12:21:23;;;;;;;4.15;1.57;;;;;;;24.50;41.08;100474.69;1732441;80;21077;-41
2021/09/28 12:24:14;;;;;;;2.05;1.60;;;;;;;24.50;41.10;100477.87;1698060;82;21064;-40
2021/09/28 12:26:41;;;;;;;2.70;1.65;;;;;;;24.50;41.11;100473.84;1725172;82;21027;-40
2021/09/28 12:29:15;;;;;;;4.00;2.52;;;;;;;24.50;41.16;100480.06;1708808;80;21496;-40
2021/09/28 12:31:42;;;;;;;2.35;1.42;;;;;;;24.51;41.17;100478.22;1743478;80;21092;-42
2021/09/28 12:34:10;;;;;;;5.17;1.85;;;;;;;24.50;41.15;100478.72;1731706;80;21039;-40
2021/09/28 12:36:38;;;;;;;3.98;1.70;;;;;;;24.53;41.11;100478.95;1730997;81;21122;-40
2021/09/28 12:39:16;;;;;;;4.65;1.72;;;;;;;24.52;41.11;100477.26;1701502;82;21086;-40
2021/09/28 12:42:06;;;;;;;4.92;1.70;;;;;;;24.53;41.09;100482.99;1735665;80;20976;-41
2021/09/28 12:44:32;;;;;;;1.82;1.72;;;;;;;24.54;41.10;100488.75;1734545;80;21035;-40
2021/09/28 12:47:01;;;;;;;2.92;1.60;;;;;;;24.54;41.10;100484.22;1733755;80;21227;-40
2021/09/28 12:49:32;;;;;;;3.65;1.52;;;;;;;24.55;41.08;100490.02;1754021;80;21044;-40
2021/09/28 12:51:59;;;;;;;4.67;1.62;;;;;;;24.56;41.06;100479.63;1753228;79;21453;-40
2021/09/28 12:54:27;;;;;;;5.15;2.27;;;;;;;24.58;41.06;100484.86;1749336;79;21036;-40
2021/09/28 12:56:54;;;;;;;4.12;1.65;;;;;;;24.59;41.05;100481.20;1756489;80;21055;-40
2021/09/28 12:59:20;;;;;;;2.77;2.20;;;;;;;24.59;41.06;100484.75;1737988;81;21763;-40
2021/09/28 13:01:50;;;;;;;2.40;1.90;;;;;;;24.62;41.04;100487.70;1752154;80;21283;-41
2021/09/28 13:04:17;;;;;;;3.27;1.77;;;;;;;24.62;41.02;100488.55;1767589;79;21620;-41
2021/09/28 13:06:45;;;;;;;5.60;2.00;;;;;;;24.64;41.03;100491.13;1735186;80;20989;-40
2021/09/28 13:09:12;;;;;;;6.15;1.62;;;;;;;24.64;41.03;100485.24;1695013;82;21070;-41
2021/09/28 13:11:39;;;;;;;2.00;1.57;;;;;;;24.66;41.10;100487.34;1712620;82;21435;-40
2021/09/28 13:14:07;;;;;;;3.02;1.70;;;;;;;24.68;41.20;100489.92;1730446;80;21059;-40
2021/09/28 13:16:33;;;;;;;8.70;2.05;;;;;;;24.68;41.28;100484.55;1718250;82;21047;-40
2021/09/28 13:19:02;;;;;;;3.58;1.82;;;;;;;24.69;41.39;100482.20;1755497;79;21039;-40
2021/09/28 13:21:28;;;;;;;3.80;2.10;;;;;;;24.71;41.51;100490.16;1743195;80;21064;-42
2021/09/28 13:23:55;;;;;;;4.03;2.05;;;;;;;24.72;41.63;100490.53;1748188;80;21518;-41
2021/09/28 13:26:21;;;;;;;6.47;2.30;;;;;;;24.71;41.72;100491.00;1759073;81;20976;-41
2021/09/28 13:28:48;;;;;;;3.62;1.95;;;;;;;24.72;41.85;100491.37;1755452;80;21350;-40
2021/09/28 13:31:14;;;;;;;3.40;1.80;;;;;;;24.72;41.93;100494.08;1709628;80;21088;-40
2021/09/28 13:33:40;;;;;;;7.30;2.50;;;;;;;24.73;41.98;100492.23;1706905;81;21481;-41
2021/09/28 13:36:21;;;;;;;9.23;2.10;;;;;;;24.71;42.06;100495.53;1744525;79;21103;-40
2021/09/28 13:38:48;;;;;;;3.30;2.20;;;;;;;24.71;42.11;100493.69;1752565;80;21060;-40
2021/09/28 13:41:15;;;;;;;7.33;2.70;;;;;;;24.71;42.19;100500.42;1713716;81;21886;-40
2021/09/28 13:43:41;;;;;;;5.30;2.25;;;;;;;24.71;42.19;100501.77;1753096;80;21568;-42
2021/09/28 13:46:08;;;;;;;10.15;2.92;;;;;;;24.71;42.22;100504.95;1743377;81;22164;-41
2021/09/28 13:48:34;;;;;;;6.45;2.50;;;;;;;24.69;42.27;100509.11;1719410;81;21276;-40
2021/09/28 13:51:00;;;;;;;7.53;2.70;;;;;;;24.69;42.27;100509.11;1740823;80;21066;-40
2021/09/28 13:53:28;;;;;;;5.37;2.30;;;;;;;24.68;42.27;100512.80;1748498;81;21969;-40
2021/09/28 13:55:54;;;;;;;5.47;2.50;;;;;;;24.68;42.27;100512.80;1747587;80;21066;-40
2021/09/28 13:58:21;;;;;;;5.50;2.40;;;;;;;24.67;42.26;100513.76;1728353;80;21022;-39
2021/09/28 14:00:47;;;;;;;4.78;2.40;;;;;;;24.66;42.24;100506.66;1717571;80;21624;-41
2021/09/28 14:03:14;;;;;;;4.35;2.27;;;;;;;24.66;42.24;100516.07;1704076;80;21106;-40
2021/09/28 14:05:40;;;;;;;5.95;2.65;;;;;;;24.64;42.22;100512.16;1746232;80;21178;-41
2021/09/28 14:08:07;;;;;;;6.30;3.15;;;;;;;24.65;42.18;100518.41;1754438;80;21087;-40
2021/09/28 14:10:34;;;;;;;6.78;2.47;;;;;;;24.63;42.16;100517.69;1770852;79;21841;-40
2021/09/28 14:13:02;;;;;;;6.72;2.60;;;;;;;24.61;42.15;100517.80;1743053;79;21050;-42
2021/09/28 14:15:31;;;;;;;4.35;2.15;;;;;;;24.61;42.11;100524.99;1754980;79;21035;-40
2021/09/28 14:17:58;;;;;;;6.47;2.30;;;;;;;24.60;42.12;100523.30;1758050;80;21018;-40
2021/09/28 14:20:25;;;;;;;3.98;2.65;;;;;;;24.59;42.10;100524.26;1740138;80;21528;-40
2021/09/28 14:22:52;;;;;;;5.37;2.27;;;;;;;24.59;42.06;100525.61;1760522;79;21789;-40
2021/09/28 14:25:19;;;;;;;7.08;2.37;;;;;;;24.57;42.06;100532.45;1732864;80;21142;-41
2021/09/28 14:27:45;;;;;;;5.45;3.22;;;;;;;24.57;42.05;100533.80;1722223;81;21092;-41
2021/09/28 14:30:14;;;;;;;6.53;2.77;;;;;;;24.58;42.01;100538.67;1710404;82;21703;-40
2021/09/28 14:32:41;;;;;;;5.35;2.50;;;;;;;24.57;41.99;100534.30;1744795;80;38955;-43
2021/09/28 14:35:09;;;;;;;4.12;2.17;;;;;;;24.56;41.99;100533.91;1754414;80;21827;-43
2021/09/28 14:37:36;;;;;;;5.90;2.40;;;;;;;24.56;41.96;100541.52;1723181;81;21068;-42
2021/09/28 14:40:04;;;;;;;4.12;2.25;;;;;;;24.55;41.92;100541.13;1750190;79;21047;-41
2021/09/28 14:42:33;;;;;;;5.00;2.52;;;;;;;24.55;41.89;100542.98;1735421;79;21186;-40
2021/09/28 14:44:59;;;;;;;5.53;2.08;;;;;;;24.53;41.91;100547.56;1744614;80;21072;-41
2021/09/28 14:47:25;;;;;;;6.85;2.77;;;;;;;24.54;41.88;100553.32;1756522;80;21068;-40
2021/09/28 14:49:51;;;;;;;5.03;2.17;;;;;;;24.53;41.87;100554.28;1718684;80;21105;-40
2021/09/28 14:52:17;;;;;;;4.65;2.40;;;;;;;24.53;41.85;100552.94;1742186;80;21036;-41
2021/09/28 14:54:44;;;;;;;4.33;2.20;;;;;;;24.50;41.83;100555.39;1718976;80;21546;-42
2021/09/28 14:57:10;;;;;;;3.50;2.08;;;;;;;24.50;41.83;100558.58;1732045;80;21008;-40
2021/09/28 14:59:38;;;;;;;2.95;1.98;;;;;;;24.49;41.80;100557.70;1741410;82;21463;-42
2021/09/28 15:02:05;;;;;;;3.98;2.12;;;;;;;24.48;41.80;100554.16;1753610;80;21106;-40
2021/09/28 15:04:32;;;;;;;4.10;1.95;;;;;;;24.48;41.81;100560.05;1753975;80;21008;-40
2021/09/28 15:06:59;;;;;;;2.92;2.22;;;;;;;24.47;41.83;100558.31;1749594;80;21027;-41
2021/09/28 15:09:25;;;;;;;5.12;2.12;;;;;;;24.46;41.82;100556.59;1713694;82;21588;-40
2021/09/28 15:11:51;;;;;;;4.40;2.10;;;;;;;24.45;41.85;100557.08;1722137;79;21584;-41
2021/09/28 15:14:20;;;;;;;6.87;2.15;;;;;;;24.45;41.80;100563.81;1746667;80;21101;-40
2021/09/28 15:16:46;;;;;;;4.28;2.10;;;;;;;24.44;41.79;100560.77;1749242;80;21847;-40
2021/09/28 15:19:12;;;;;;;5.65;1.98;;;;;;;24.44;41.80;100559.42;1724119;82;21130;-42
2021/09/28 15:21:40;;;;;;;4.30;2.20;;;;;;;24.43;41.81;100563.58;1744013;80;21032;-40
2021/09/28 15:24:08;;;;;;;3.60;2.10;;;;;;;24.42;41.79;100566.73;1745136;80;21045;-40
2021/09/28 15:26:37;;;;;;;3.83;2.02;;;;;;;24.41;41.80;100565.03;1733827;81;21858;-41
2021/09/28 15:29:03;;;;;;;8.15;1.87;;;;;;;24.40;41.80;100563.30;1736377;80;21055;-41
2021/09/28 15:31:30;;;;;;;2.90;1.92;;;;;;;24.39;41.81;100561.58;1735330;80;21081;-41
2021/09/28 15:33:58;;;;;;;4.05;1.90;;;;;;;24.38;41.79;100567.95;1721962;81;21050;-40
2021/09/28 15:36:26;;;;;;;5.87;2.20;;;;;;;24.36;41.83;100561.84;1741549;82;21603;-43
2021/09/28 15:38:54;;;;;;;5.10;2.12;;;;;;;24.37;41.82;100568.06;1758398;79;21170;-40
2021/09/28 15:41:23;;;;;;;2.22;1.92;;;;;;;24.36;41.83;100569.02;1728029;81;21584;-40
2021/09/28 15:43:52;;;;;;;2.25;2.00;;;;;;;24.35;41.81;100568.17;1747860;80;21620;-40
2021/09/28 15:46:19;;;;;;;3.27;2.00;;;;;;;24.34;41.83;100566.94;1737468;82;21063;-42
2021/09/28 15:48:45;;;;;;;2.95;2.05;;;;;;;24.33;41.85;100571.97;1740994;80;20999;-42
2021/09/28 15:51:12;;;;;;;4.08;2.75;;;;;;;24.32;41.86;100576.47;1724635;81;21079;-41
2021/09/28 15:53:40;;;;;;;4.00;2.10;;;;;;;24.32;41.86;100584.54;1746224;80;21029;-41
2021/09/28 15:56:10;;;;;;;3.58;1.70;;;;;;;24.31;41.83;100578.81;1743699;80;21081;-40
2021/09/28 15:58:36;;;;;;;2.08;1.90;;;;;;;24.31;41.86;100586.88;1712970;80;21074;-41
2021/09/28 16:01:03;;;;;;;7.40;2.02;;;;;;;24.30;41.82;100590.53;1723908;80;21044;-40
2021/09/28 16:03:30;;;;;;;4.65;2.27;;;;;;;24.28;41.84;100597.86;1747750;80;21534;-43
2021/09/28 16:06:01;;;;;;;3.98;1.98;;;;;;;24.28;41.84;100595.17;1728851;80;21089;-41
2021/09/28 16:08:28;;;;;;;4.58;2.15;;;;;;;24.27;41.85;100597.48;1733601;79;21849;-41
2021/09/28 16:10:55;;;;;;;5.62;1.90;;;;;;;24.25;41.84;100605.66;1713362;82;21091;-40
2021/09/28 16:13:22;;;;;;;4.00;1.67;;;;;;;24.25;41.85;100602.12;1744813;79;21059;-41
2021/09/28 16:15:49;;;;;;;4.85;1.77;;;;;;;24.24;41.84;100607.11;1742771;80;21130;-41
2021/09/28 16:18:16;;;;;;;2.85;1.80;;;;;;;24.23;41.87;100609.45;1740262;80;21119;-41
2021/09/28 16:20:43;;;;;;;4.05;1.98;;;;;;;24.22;41.87;100616.64;1740398;79;21111;-40
2021/09/28 16:23:09;;;;;;;3.10;1.90;;;;;;;24.21;41.88;100618.09;1724697;80;21478;-41
2021/09/28 16:25:36;;;;;;;6.17;1.75;;;;;;;24.22;41.88;100615.79;1738766;80;21162;-40
2021/09/28 16:28:03;;;;;;;3.83;1.92;;;;;;;24.19;41.89;100618.70;1719524;80;21126;-40
2021/09/28 16:30:29;;;;;;;3.33;1.57;;;;;;;24.18;41.92;100619.69;1738148;80;22150;-41
2021/09/28 16:32:56;;;;;;;3.10;1.98;;;;;;;24.17;41.90;100626.87;1754122;80;21059;-41
2021/09/28 16:35:22;;;;;;;4.08;1.90;;;;;;;24.16;41.93;100626.52;1746999;79;21038;-42
2021/09/28 16:37:48;;;;;;;4.70;1.95;;;;;;;24.16;41.98;100629.67;1730647;81;21554;-41
2021/09/28 16:40:14;;;;;;;2.55;1.50;;;;;;;24.15;41.97;100633.36;1735268;82;21046;-40
2021/09/28 16:42:41;;;;;;;5.53;1.90;;;;;;;24.14;41.99;100631.62;1713236;81;20923;-40
2021/09/28 16:45:08;;;;;;;2.55;1.90;;;;;;;24.13;42.05;100627.24;1726005;80;21830;-41
2021/09/28 16:47:35;;;;;;;3.92;2.08;;;;;;;24.11;42.16;100632.23;1741912;80;21026;-40
2021/09/28 16:50:02;;;;;;;8.45;2.10;;;;;;;24.09;42.25;100634.19;1727320;81;21869;-40
2021/09/28 16:52:28;;;;;;;2.15;1.80;;;;;;;24.09;42.34;100641.38;1742244;80;21125;-42
2021/09/28 16:54:55;;;;;;;4.55;2.02;;;;;;;24.06;42.42;100638.44;1713474;80;21130;-40
2021/09/28 16:57:21;;;;;;;1.87;1.67;;;;;;;24.05;42.49;100632.67;1732423;81;21044;-41
2021/09/28 16:59:48;;;;;;;4.12;2.25;;;;;;;24.05;42.54;100642.08;1729191;80;21075;-41
2021/09/28 17:02:14;;;;;;;3.55;1.55;;;;;;;24.04;42.63;100643.08;1728396;80;20986;-41
2021/09/28 17:04:40;;;;;;;4.92;1.57;;;;;;;24.03;42.70;100646.72;1724571;80;21779;-40
2021/09/28 17:07:07;;;;;;;6.42;2.05;;;;;;;24.02;42.75;100646.34;1748251;80;21102;-40
2021/09/28 17:09:33;;;;;;;3.83;1.80;;;;;;;24.02;42.71;100646.34;1735301;79;21650;-40
2021/09/28 17:12:00;;;;;;;3.87;2.10;;;;;;;24.02;42.70;100638.77;1745638;81;21108;-40
2021/09/28 17:14:27;;;;;;;5.15;1.90;;;;;;;24.02;42.69;100646.34;1713367;80;21126;-39
2021/09/28 17:16:53;;;;;;;4.70;2.15;;;;;;;24.01;42.72;100648.67;1741351;80;22508;-40
2021/09/28 17:19:20;;;;;;;4.78;1.75;;;;;;;24.00;42.76;100644.25;1750696;79;21612;-41
2021/09/28 17:21:46;;;;;;;8.60;2.20;;;;;;;23.99;42.76;100637.18;1732780;80;21032;-41
2021/09/28 17:24:14;;;;;;;4.47;2.20;;;;;;;23.99;42.87;100655.11;1750620;80;21062;-40
2021/09/28 17:26:40;;;;;;;6.33;2.12;;;;;;;23.98;42.87;100651.58;1733002;80;21151;-40
2021/09/28 17:29:09;;;;;;;5.53;2.22;;;;;;;23.97;42.92;100656.56;1738781;82;23143;-40
2021/09/28 17:32:18;;;;;;;5.72;2.20;;;;;;;23.98;42.96;100665.02;1720881;82;21317;-41
2021/09/28 17:34:49;;;;;;;4.95;1.98;;;;;;;23.97;43.00;100659.75;1718118;82;21081;-40
2021/09/28 17:37:17;;;;;;;5.17;2.12;;;;;;;23.96;42.99;100662.94;1713503;82;22195;-40
2021/09/28 17:39:45;;;;;;;7.17;2.55;;;;;;;23.95;43.02;100666.58;1703635;79;21103;-40
2021/09/28 17:42:13;;;;;;;3.70;2.30;;;;;;;23.95;43.01;100669.27;1739293;80;21043;-40
2021/09/28 17:44:40;;;;;;;6.28;2.33;;;;;;;23.94;43.09;100667.57;1747106;80;21035;-40
2021/09/28 17:47:07;;;;;;;5.05;2.00;;;;;;;23.95;43.06;100669.77;1739276;79;21460;-40
2021/09/28 17:49:34;;;;;;;4.40;2.10;;;;;;;23.95;43.07;100675.98;1733099;80;21071;-41
2021/09/28 17:52:00;;;;;;;3.10;1.85;;;;;;;23.95;43.03;100669.77;1741777;80;21099;-40
2021/09/28 17:54:39;;;;;;;3.60;2.20;;;;;;;23.94;43.07;100678.32;1754604;80;21075;-40
2021/09/28 17:59:31;;;;;;;3.90;1.90;;;;;;;23.93;43.06;100677.94;1759536;80;21451;-43
2021/09/28 18:01:58;;;;;;;3.90;2.05;;;;;;;23.93;43.04;100676.59;1718707;81;21099;-41
2021/09/28 18:04:24;;;;;;;5.90;2.22;;;;;;;23.92;43.03;100680.23;1721037;81;21494;-42
2021/09/28 18:06:50;;;;;;;4.03;2.10;;;;;;;23.92;43.07;100684.27;1675402;82;21123;-41
2021/09/28 18:09:18;;;;;;;3.80;2.30;;;;;;;23.92;43.08;100682.46;1680034;83;21102;-41
2021/09/28 18:11:46;;;;;;;2.95;1.85;;;;;;;23.92;43.05;100693.67;1691619;83;21644;-39
2021/09/28 18:14:14;;;;;;;4.42;2.10;;;;;;;23.91;43.15;100686.60;1688045;82;21063;-39
2021/09/28 18:16:42;;;;;;;3.20;2.20;;;;;;;23.91;43.30;100687.95;1695685;83;21085;-39
2021/09/28 18:19:10;;;;;;;6.33;2.42;;;;;;;23.90;43.42;100687.56;1687190;83;21444;-40
2021/09/28 18:21:37;;;;;;;6.58;2.45;;;;;;;23.90;43.55;100684.87;1685677;83;21099;-39
2021/09/28 18:24:05;;;;;;;7.10;3.12;;;;;;;23.89;43.66;100687.20;1706494;83;21062;-42
2021/09/28 18:26:33;;;;;;;4.83;2.65;;;;;;;23.89;43.80;100687.20;1699380;83;21100;-43
2021/09/28 18:29:00;;;;;;;8.60;2.85;;;;;;;23.88;43.91;100693.54;1704748;83;20944;-40
2021/09/28 18:31:27;;;;;;;10.18;2.90;;;;;;;23.87;43.99;100698.06;1713565;80;21642;-40
2021/09/28 18:33:55;;;;;;;4.75;2.90;;;;;;;23.88;44.05;100704.28;1754839;80;20983;-40
2021/09/28 18:36:22;;;;;;;5.05;2.87;;;;;;;23.87;44.11;100705.25;1715797;81;21095;-40
2021/09/28 18:38:52;;;;;;;5.20;2.95;;;;;;;23.87;44.17;100701.22;1743404;80;21074;-42
2021/09/28 18:43:57;;;;;;;5.30;3.20;;;;;;;23.86;44.28;100707.08;1688872;81;21239;-40
2021/09/28 18:46:23;;;;;;;4.03;2.70;;;;;;;23.87;44.33;100706.59;1747084;80;21208;-41
2021/09/28 18:48:50;;;;;;;4.03;3.10;;;;;;;23.87;44.33;100713.31;1714263;82;21094;-41
2021/09/28 18:51:17;;;;;;;4.12;3.00;;;;;;;23.86;44.34;100712.45;1751293;80;22182;-41
2021/09/28 18:53:46;;;;;;;6.67;3.22;;;;;;;23.86;44.37;100713.80;1734753;80;21647;-41
2021/09/28 18:56:14;;;;;;;5.65;3.25;;;;;;;23.86;44.39;100716.98;1741814;79;21080;-42
2021/09/28 18:58:54;;;;;;;7.47;2.92;;;;;;;23.85;44.36;100713.41;1702780;81;21142;-41
2021/09/28 19:01:17;;;;;;;6.53;2.92;;;;;;;23.86;44.36;100722.36;1749520;80;20990;-40
2021/09/28 19:03:57;;;;;;;5.80;2.90;;;;;;;23.86;44.38;100727.73;1742210;80;21155;-41
2021/09/28 19:08:46;;;;;;;4.67;2.87;;;;;;;23.85;44.32;100730.03;1735798;80;21902;-41
2021/09/28 19:11:13;;;;;;;5.17;2.90;;;;;;;23.84;44.32;100729.19;1747485;80;21088;-41
2021/09/28 19:13:40;;;;;;;4.28;3.30;;;;;;;23.84;44.27;100730.98;1724465;80;21454;-41
2021/09/28 19:16:07;;;;;;;7.83;3.10;;;;;;;23.85;44.27;100731.38;1716028;81;21063;-41
2021/09/28 19:18:34;;;;;;;7.08;3.30;;;;;;;23.85;44.22;100735.41;1717263;81;21155;-41
2021/09/28 19:23:28;;;;;;;5.45;2.83;;;;;;;23.84;44.20;100724.27;1744944;80;21247;-42
2021/09/28 19:25:55;;;;;;;5.05;3.10;;;;;;;23.83;44.17;100730.64;1756068;80;21001;-42
2021/09/28 19:28:21;;;;;;;8.60;3.00;;;;;;;23.82;44.18;100732.47;1767447;80;21088;-41
2021/09/28 19:30:49;;;;;;;4.20;2.67;;;;;;;23.83;44.14;100730.64;1729723;80;21498;-41
2021/09/28 19:33:18;;;;;;;5.33;3.00;;;;;;;23.83;44.14;100730.64;1722090;80;21572;-41
2021/09/28 19:35:44;;;;;;;6.92;3.05;;;;;;;23.82;44.09;100728.44;1745193;80;22162;-41
2021/09/28 19:38:11;;;;;;;8.85;2.90;;;;;;;23.81;44.07;100728.02;1743683;80;21109;-41
2021/09/28 19:40:44;;;;;;;4.53;3.00;;;;;;;23.82;44.08;100732.94;1780228;79;22375;-42
2021/09/28 19:43:08;;;;;;;5.42;3.20;;;;;;;23.81;44.08;100736.08;1751962;80;21088;-41
2021/09/28 19:45:43;;;;;;;6.47;2.72;;;;;;;23.82;44.04;100734.28;1741146;80;21626;-41
2021/09/28 19:48:06;;;;;;;7.03;2.85;;;;;;;23.81;44.03;100733.89;1757116;80;21202;-42
2021/09/28 19:50:37;;;;;;;6.75;3.12;;;;;;;23.81;44.01;100730.70;1712934;82;21007;-41
2021/09/28 19:53:05;;;;;;;7.90;3.30;;;;;;;23.80;43.98;100730.81;1762664;80;20980;-41
2021/09/28 20:00:39;;;;;;;6.78;2.80;;;;;;;23.82;44.28;100737.84;1701583;81;21160;-41
2021/09/28 20:36:01;;;;;;;8.03;2.92;;;;;;;23.85;44.54;100746.16;1742169;80;20964;-41
2021/09/28 20:36:05;;;;;;;8.80;2.75;;;;;;;23.85;44.70;100747.50;1723897;82;21168;-40
2021/09/28 20:38:38;;;;;;;6.12;2.72;;;;;;;23.85;44.75;100751.53;1732139;81;21158;-40
2021/09/28 20:41:06;;;;;;;6.37;2.87;;;;;;;23.84;44.77;100754.72;1748056;79;21507;-41
2021/09/28 20:43:32;;;;;;;8.03;3.27;;;;;;;23.84;44.76;100749.80;1704653;81;21546;-40
2021/09/28 20:45:59;;;;;;;9.50;3.37;;;;;;;23.84;44.80;100748.45;1731333;79;21092;-40
2021/09/28 20:48:27;;;;;;;7.50;3.52;;;;;;;23.84;44.83;100751.15;1742883;80;21577;-41
2021/09/28 20:50:56;;;;;;;6.87;2.83;;;;;;;23.83;44.85;100749.45;1753592;80;21135;-40
2021/09/28 20:53:22;;;;;;;7.60;3.15;;;;;;;23.84;44.88;100753.83;1757046;79;21597;-41
2021/09/28 20:55:49;;;;;;;8.60;3.52;;;;;;;23.85;44.89;100756.91;1738638;80;21049;-40
2021/09/28 20:58:18;;;;;;;5.70;3.17;;;;;;;23.85;44.90;100755.56;1745903;80;21133;-41
2021/09/28 21:00:46;;;;;;;6.62;3.50;;;;;;;23.84;44.90;100759.21;1717471;82;21205;-40
2021/09/28 21:03:15;;;;;;;6.90;3.20;;;;;;;23.85;44.92;100763.63;1749168;79;21195;-40
2021/09/28 21:05:43;;;;;;;5.50;3.00;;;;;;;23.84;44.91;100770.84;1695196;81;21298;-41
2021/09/28 21:08:09;;;;;;;8.90;3.05;;;;;;;23.84;44.91;100764.59;1740087;80;21063;-40
2021/09/28 21:10:36;;;;;;;7.50;3.05;;;;;;;23.84;44.93;100763.24;1753916;80;21099;-40
2021/09/28 21:13:02;;;;;;;4.08;2.70;;;;;;;23.84;44.91;100769.95;1757719;80;21084;-40
2021/09/28 21:15:30;;;;;;;8.18;2.98;;;;;;;23.85;44.97;100764.97;1702942;82;21105;-41
2021/09/28 21:17:58;;;;;;;6.47;3.20;;;;;;;23.85;44.96;100769.00;1725863;82;21067;-40
2021/09/28 21:20:24;;;;;;;4.50;3.00;;;;;;;23.85;44.96;100766.32;1729516;80;21060;-40
2021/09/28 21:22:51;;;;;;;7.28;3.40;;;;;;;23.85;44.95;100774.38;1721080;81;21067;-40
2021/09/28 21:25:18;;;;;;;7.28;3.08;;;;;;;23.84;44.93;100770.84;1738271;80;21119;-40
2021/09/28 21:27:46;;;;;;;5.85;3.47;;;;;;;23.85;44.93;100774.38;1738329;80;21454;-40
2021/09/28 21:30:14;;;;;;;6.50;2.90;;;;;;;23.85;44.93;100775.23;1741479;79;20984;-40
2021/09/28 21:32:50;;;;;;;5.37;3.30;;;;;;;23.85;44.94;100775.72;1746938;80;21051;-40
2021/09/28 21:35:25;;;;;;;5.90;2.90;;;;;;;23.85;44.94;100777.06;1710734;82;21075;-41
2021/09/28 21:37:53;;;;;;;6.95;2.80;;;;;;;23.85;44.90;100781.09;1732351;81;21079;-40